Time;durP1;ratioP1;P1;durP2;ratioP2;P2;SDS_P1;SDS_P2;PMS_P1;PMS_P2;Temp;Humidity;BMP_temperature;BMP_pressure;BME280_temperature;BME280_humidity;BME280_pressure;Samples;Min_cycle;Max_cycle;Signal;HPM_P1;HPM_P2
2021/11/18 00:00:27;;;;;;;9.65;5.68;;;;;;;6.39;75.40;101612.00;5015121;28;20018;-90
2021/11/18 00:02:53;;;;;;;9.32;6.40;;;;;;;6.38;75.91;101615.47;4998814;28;20391;-90
2021/11/18 00:05:21;;;;;;;7.93;5.82;;;;;;;6.36;75.51;101607.59;4998536;28;20026;-90
2021/11/18 00:07:48;;;;;;;8.68;5.85;;;;;;;6.38;75.60;101618.09;4998520;28;20018;-90
2021/11/18 00:10:28;;;;;;;9.27;6.13;;;;;;;6.37;75.22;101613.72;4998247;28;20098;-90
2021/11/18 00:12:55;;;;;;;10.65;7.05;;;;;;;6.35;75.59;101616.31;4998760;28;20033;-90
2021/11/18 00:15:23;;;;;;;9.30;6.72;;;;;;;6.38;75.68;101620.72;4998548;28;20040;-90
2021/11/18 00:17:49;;;;;;;8.43;6.22;;;;;;;6.36;75.41;101611.94;4998564;28;20055;-91
2021/11/18 00:20:15;;;;;;;8.50;6.20;;;;;;;6.35;75.45;101611.06;4998545;28;20037;-90
2021/11/18 00:22:44;;;;;;;8.93;6.28;;;;;;;6.37;75.65;101613.72;5014909;28;20033;-90
2021/11/18 00:25:12;;;;;;;10.07;6.40;;;;;;;6.37;75.36;101606.72;4998199;28;20018;-91
2021/11/18 00:27:38;;;;;;;8.63;6.10;;;;;;;6.36;75.21;101612.81;4998182;28;20116;-90
2021/11/18 00:30:06;;;;;;;10.57;6.22;;;;;;;6.39;75.74;101625.09;4998345;28;20498;-90
2021/11/18 00:32:31;;;;;;;8.90;6.25;;;;;;;6.31;75.41;101603.09;4998064;28;20076;-90
2021/11/18 00:34:56;;;;;;;9.30;6.38;;;;;;;6.34;75.52;101613.63;4997880;28;20079;-90
2021/11/18 00:37:21;;;;;;;8.60;6.43;;;;;;;6.34;75.94;101618.88;4998259;28;20029;-91
2021/11/18 00:39:47;;;;;;;9.15;6.68;;;;;;;6.35;75.76;101625.88;4997678;28;20026;-90
2021/11/18 00:42:12;;;;;;;11.20;6.15;;;;;;;6.36;76.08;101622.41;4997459;28;20066;-90
2021/11/18 00:44:38;;;;;;;8.02;6.03;;;;;;;6.29;75.83;101619.66;4997903;28;20045;-90
2021/11/18 00:47:04;;;;;;;9.38;6.95;;;;;;;6.35;75.76;101637.25;4996925;28;20033;-90
2021/11/18 00:49:29;;;;;;;10.05;6.53;;;;;;;6.31;75.66;101624.03;4997230;28;20556;-90
2021/11/18 00:51:54;;;;;;;8.55;6.18;;;;;;;6.35;75.79;101632.03;4997195;28;20148;-90
2021/11/18 00:54:21;;;;;;;9.50;6.35;;;;;;;6.37;75.74;101645.16;4996872;28;20176;-90
2021/11/18 00:56:46;;;;;;;7.65;5.65;;;;;;;6.37;75.96;101639.94;4996990;28;20053;-90
2021/11/18 00:59:12;;;;;;;8.10;6.18;;;;;;;6.36;75.57;101632.88;4996946;28;20030;-90
2021/11/18 01:01:43;;;;;;;9.55;6.65;;;;;;;6.35;75.51;101641.59;4996761;28;20038;-89
2021/11/18 01:04:12;;;;;;;;;;;;;;;6.33;75.81;101648.56;4998362;28;20060;-90
2021/11/18 01:06:38;;;;;;;7.40;5.82;;;;;;;6.32;75.95;101642.44;4997590;28;19916;-90
2021/11/18 01:09:04;;;;;;;9.18;6.50;;;;;;;6.32;75.78;101647.66;5014045;28;20403;-89
2021/11/18 01:11:30;;;;;;;12.27;6.97;;;;;;;6.35;75.54;101652.09;4996698;28;20013;-90
2021/11/18 01:13:56;;;;;;;11.75;7.18;;;;;;;6.36;75.90;101651.22;5013884;28;20426;-90
2021/11/18 01:16:24;;;;;;;10.45;6.93;;;;;;;6.37;75.81;101655.66;4997691;28;20021;-90
2021/11/18 01:18:50;;;;;;;8.55;6.82;;;;;;;6.33;75.56;101644.19;4996966;28;20468;-90
2021/11/18 01:21:16;;;;;;;9.85;6.82;;;;;;;6.38;75.75;101652.16;4997176;28;20029;-90
2021/11/18 01:23:42;;;;;;;11.88;7.10;;;;;;;6.37;75.47;101655.66;4996626;28;20021;-90
2021/11/18 01:26:11;;;;;;;11.73;7.05;;;;;;;6.36;75.62;101649.50;4997546;28;20022;-90
2021/11/18 01:28:36;;;;;;;11.20;6.80;;;;;;;6.34;75.67;101650.31;4997193;28;20021;-91
2021/11/18 01:31:04;;;;;;;9.98;7.07;;;;;;;6.33;75.84;101656.44;5013780;28;20018;-90
2021/11/18 01:33:30;;;;;;;9.30;6.22;;;;;;;6.34;75.53;101663.44;4997214;28;20068;-90
2021/11/18 01:35:56;;;;;;;9.70;6.65;;;;;;;6.35;75.51;101671.31;4997315;28;20630;-90
2021/11/18 01:38:22;;;;;;;11.90;8.00;;;;;;;6.34;75.54;101671.28;4996882;28;20455;-90
2021/11/18 01:40:51;;;;;;;8.05;6.72;;;;;;;6.33;75.66;101670.38;4997304;28;20024;-90
2021/11/18 01:43:19;;;;;;;10.43;6.57;;;;;;;6.34;75.37;101682.63;4996936;28;20073;-90
2021/11/18 01:45:44;;;;;;;8.65;5.80;;;;;;;6.36;75.92;101687.91;4996855;28;20117;-90
2021/11/18 01:48:10;;;;;;;12.63;6.95;;;;;;;6.29;75.81;101679.94;4997330;28;20057;-90
2021/11/18 01:50:37;;;;;;;8.80;6.38;;;;;;;6.35;75.80;101686.16;4997352;28;20021;-89
2021/11/18 01:53:05;;;;;;;10.95;6.90;;;;;;;6.33;75.96;101685.25;4996797;28;20028;-91
2021/11/18 01:55:31;;;;;;;10.70;6.85;;;;;;;6.28;76.02;101688.59;4997363;28;20557;-90
2021/11/18 01:57:56;;;;;;;10.38;6.68;;;;;;;6.33;75.87;101693.97;4997039;28;20089;-90
2021/11/18 02:00:30;;;;;;;10.00;6.40;;;;;;;6.33;75.84;101696.59;5013091;28;20017;-90
2021/11/18 02:02:55;;;;;;;9.48;6.97;;;;;;;6.29;75.65;101690.41;4996866;28;20033;-90
2021/11/18 02:05:22;;;;;;;10.88;6.95;;;;;;;6.34;75.68;101702.72;4996897;28;20026;-90
2021/11/18 02:07:48;;;;;;;7.68;6.57;;;;;;;6.31;75.80;101697.41;4996738;28;20416;-89
2021/11/18 02:10:17;;;;;;;9.07;6.55;;;;;;;6.32;75.90;101693.94;4996973;28;20089;-90
2021/11/18 02:12:43;;;;;;;9.60;7.00;;;;;;;6.31;75.71;101692.16;4996321;28;20105;-90
2021/11/18 02:15:22;;;;;;;11.93;7.03;;;;;;;6.32;75.69;101699.19;4996334;28;20030;-90
2021/11/18 02:17:47;;;;;;;7.78;6.03;;;;;;;6.27;75.83;101692.09;4996671;28;20028;-90
2021/11/18 02:20:22;;;;;;;9.52;6.60;;;;;;;6.32;76.05;101712.28;4996334;28;20021;-91
2021/11/18 02:22:47;;;;;;;10.02;7.10;;;;;;;6.30;75.74;101709.63;4996633;28;20038;-90
2021/11/18 02:25:13;;;;;;;10.25;7.05;;;;;;;6.27;75.99;101710.44;4996441;28;20387;-90
2021/11/18 02:27:39;;;;;;;9.85;6.22;;;;;;;6.31;75.70;101707.88;4996666;28;20025;-90
2021/11/18 02:30:06;;;;;;;10.73;6.68;;;;;;;6.31;75.46;101714.03;4996120;28;20029;-90
2021/11/18 02:32:37;;;;;;;8.60;6.25;;;;;;;6.33;75.73;101708.84;4996359;28;20049;-90
2021/11/18 02:35:08;;;;;;;8.77;6.20;;;;;;;6.29;75.97;101705.22;5015364;28;20105;-90
2021/11/18 02:37:33;;;;;;;8.50;5.90;;;;;;;6.28;75.84;101717.44;5000189;28;20026;-90
2021/11/18 02:39:59;;;;;;;8.13;6.55;;;;;;;6.27;75.83;101715.66;4999765;28;20033;-90
2021/11/18 02:42:25;;;;;;;9.77;6.75;;;;;;;6.34;75.53;101713.22;4999575;28;20540;-90
2021/11/18 02:44:51;;;;;;;10.35;6.45;;;;;;;6.34;75.72;101713.22;5016171;28;20026;-90
2021/11/18 02:47:16;;;;;;;10.75;6.65;;;;;;;6.31;75.76;101702.66;5016262;28;20026;-90
2021/11/18 02:49:45;;;;;;;8.57;6.15;;;;;;;6.34;75.95;101710.59;4999744;28;20309;-90
2021/11/18 02:52:13;;;;;;;10.52;7.43;;;;;;;6.32;75.66;101714.91;4999646;28;20032;-90
2021/11/18 02:54:39;;;;;;;10.55;7.50;;;;;;;6.35;75.66;101725.47;5000006;28;20048;-89
2021/11/18 02:57:05;;;;;;;9.88;6.50;;;;;;;6.31;75.84;101729.75;5000236;28;20026;-89
2021/11/18 02:59:31;;;;;;;8.52;6.28;;;;;;;6.31;75.59;101729.75;4999363;28;20033;-90
2021/11/18 03:01:56;;;;;;;10.55;6.15;;;;;;;6.32;75.57;101726.28;4999621;28;20033;-90
2021/11/18 03:04:21;;;;;;;11.25;6.88;;;;;;;6.32;75.96;101731.50;4999855;28;20061;-90
2021/11/18 03:06:47;;;;;;;9.65;6.60;;;;;;;6.30;75.87;101730.56;4999949;28;20022;-90
2021/11/18 03:09:12;;;;;;;9.85;6.65;;;;;;;6.31;75.84;101742.84;4999374;28;20032;-90
2021/11/18 03:11:38;;;;;;;10.18;6.88;;;;;;;6.32;75.69;101735.84;4999532;28;20026;-90
2021/11/18 03:14:03;;;;;;;9.45;6.20;;;;;;;6.29;75.77;101727.09;4998926;28;20026;-90
2021/11/18 03:16:29;;;;;;;8.00;6.78;;;;;;;6.31;75.88;101728.84;4999351;28;20049;-90
2021/11/18 03:18:54;;;;;;;10.10;6.72;;;;;;;6.29;75.36;101727.09;4999176;28;20046;-90
2021/11/18 03:21:25;;;;;;;8.60;6.32;;;;;;;6.25;75.98;101725.25;4998901;28;20551;-90
2021/11/18 03:23:51;;;;;;;8.90;6.22;;;;;;;6.30;75.88;101738.44;4998811;28;20500;-90
2021/11/18 03:26:20;;;;;;;7.88;5.82;;;;;;;6.29;75.92;101741.91;4999482;28;20026;-90
2021/11/18 03:28:45;;;;;;;11.07;5.82;;;;;;;6.31;75.60;101744.56;5014766;28;20030;-90
2021/11/18 03:31:12;;;;;;;9.85;6.85;;;;;;;6.32;75.80;101746.34;4986516;28;20083;-90
2021/11/18 03:33:45;;;;;;;9.13;6.60;;;;;;;6.22;75.72;101725.16;5014615;28;20036;-90
2021/11/18 03:36:11;;;;;;;6.95;5.57;;;;;;;6.32;75.97;101730.63;4998719;28;20455;-90
2021/11/18 03:38:37;;;;;;;9.43;5.78;;;;;;;6.31;75.43;101729.75;4995870;28;20036;-89
2021/11/18 03:41:04;;;;;;;8.70;6.13;;;;;;;6.27;75.52;101726.16;4997250;28;20026;-90
2021/11/18 03:43:42;;;;;;;10.85;7.05;;;;;;;6.31;75.47;101734.09;4998027;28;20030;-89
2021/11/18 03:46:11;;;;;;;10.63;6.28;;;;;;;6.29;75.84;101729.72;4997625;28;20018;-89
2021/11/18 03:48:37;;;;;;;10.20;6.75;;;;;;;6.28;75.85;101727.91;4997318;28;20123;-90
2021/11/18 03:51:05;;;;;;;9.15;6.32;;;;;;;6.31;75.94;101739.34;5013432;28;20483;-90
2021/11/18 03:53:34;;;;;;;8.52;6.82;;;;;;;6.28;75.53;101729.66;4996811;28;20036;-90
2021/11/18 03:56:23;;;;;;;10.82;6.20;;;;;;;6.29;75.75;101737.56;4997639;28;20022;-89
2021/11/18 03:58:49;;;;;;;8.85;5.93;;;;;;;6.27;76.06;101726.16;4996606;28;20022;-90
2021/11/18 04:01:15;;;;;;;7.97;5.60;;;;;;;6.25;75.67;101720.00;4982791;28;20071;-89
2021/11/18 04:03:40;;;;;;;11.63;6.18;;;;;;;6.28;75.58;101735.78;4997113;28;20388;-90
2021/11/18 04:06:06;;;;;;;9.02;6.03;;;;;;;6.28;75.96;101742.75;4997459;28;20399;-90
2021/11/18 04:08:32;;;;;;;10.38;6.30;;;;;;;6.25;75.46;101735.72;4997787;28;20104;-90
2021/11/18 04:10:57;;;;;;;11.02;5.88;;;;;;;6.24;75.69;101739.16;4997299;28;20587;-89
2021/11/18 04:13:23;;;;;;;9.68;6.03;;;;;;;6.28;76.08;101743.63;4994830;28;20041;-90
2021/11/18 04:15:51;;;;;;;11.60;6.60;;;;;;;6.27;75.38;101741.88;4991432;28;20027;-90
2021/11/18 04:18:17;;;;;;;9.20;6.13;;;;;;;6.20;76.22;101726.84;4994700;28;20532;-90
2021/11/18 04:20:43;;;;;;;9.52;5.85;;;;;;;6.24;75.79;101728.69;4996549;28;20045;-90
2021/11/18 04:23:08;;;;;;;8.15;5.75;;;;;;;6.23;75.84;101741.75;4997057;28;20480;-90
2021/11/18 04:25:35;;;;;;;10.00;5.88;;;;;;;6.27;75.58;101748.88;4997326;28;20065;-90
2021/11/18 04:28:01;;;;;;;7.78;5.50;;;;;;;6.26;75.78;101742.72;4997069;28;20025;-90
2021/11/18 04:30:31;;;;;;;9.10;5.88;;;;;;;6.20;75.96;101742.56;4996646;28;20024;-90
2021/11/18 04:32:57;;;;;;;11.45;5.85;;;;;;;6.26;75.60;101752.31;4985378;28;20026;-90
2021/11/18 04:35:23;;;;;;;8.00;5.45;;;;;;;6.26;75.59;101742.72;4980888;28;20030;-89
2021/11/18 04:37:48;;;;;;;7.43;5.43;;;;;;;6.26;75.82;101742.72;4977487;28;20026;-89
2021/11/18 04:40:14;;;;;;;6.57;5.22;;;;;;;6.31;75.74;101755.06;4993783;28;20434;-89
2021/11/18 04:42:41;;;;;;;10.70;5.30;;;;;;;6.27;75.52;101744.50;4997147;28;20030;-89
2021/11/18 04:45:08;;;;;;;8.95;5.80;;;;;;;6.27;75.95;101739.25;4996585;28;20022;-89
2021/11/18 04:47:33;;;;;;;11.80;5.90;;;;;;;6.26;75.82;101732.25;4996469;28;20028;-90
2021/11/18 04:49:58;;;;;;;7.72;5.30;;;;;;;6.24;75.74;101727.81;4996670;28;20022;-89
2021/11/18 04:52:24;;;;;;;6.85;5.15;;;;;;;6.24;75.61;101728.69;4996364;28;20050;-90
2021/11/18 04:54:49;;;;;;;8.18;4.60;;;;;;;6.27;76.04;101725.28;4996633;28;20022;-90
2021/11/18 04:57:15;;;;;;;8.57;6.03;;;;;;;6.27;75.46;101738.38;4995962;28;20022;-89
2021/11/18 04:59:41;;;;;;;9.05;6.47;;;;;;;6.28;75.88;101734.91;4996896;28;20109;-89
2021/11/18 05:02:06;;;;;;;7.22;4.97;;;;;;;6.25;75.85;101747.91;4996751;28;20561;-89
2021/11/18 05:04:32;;;;;;;7.35;5.82;;;;;;;6.24;75.66;101740.91;5013190;28;20033;-90
2021/11/18 12:08:03;;;;;;;9.93;6.32;;;;;;;6.71;77.31;101832.09;5013166;28;20201;-91
2021/11/18 12:10:50;;;;;;;9.15;6.05;;;;;;;6.70;77.39;101821.56;5006145;28;20026;-91
2021/11/18 12:13:49;;;;;;;10.63;6.15;;;;;;;6.73;77.41;101822.53;5006731;28;20026;-91
2021/11/18 12:16:37;;;;;;;9.13;5.97;;;;;;;6.75;77.50;101828.72;4976196;28;20036;-90
2021/11/18 12:19:09;;;;;;;9.95;6.63;;;;;;;6.76;77.16;101822.63;4987634;28;20030;-90
2021/11/18 12:21:37;;;;;;;9.30;6.47;;;;;;;6.73;77.42;101809.41;4977833;28;20052;-90
2021/11/18 12:24:12;;;;;;;11.82;6.47;;;;;;;6.79;77.53;101821.78;4994094;28;20030;-90
2021/11/18 12:26:48;;;;;;;9.82;6.32;;;;;;;6.79;77.46;101820.06;4991791;28;20019;-90
2021/11/18 12:29:16;;;;;;;10.52;6.38;;;;;;;6.77;77.23;101806.03;4977888;28;20117;-90
2021/11/18 12:32:03;;;;;;;10.48;6.30;;;;;;;6.82;77.08;101813.13;4998633;28;20025;-90
2021/11/18 12:34:52;;;;;;;9.32;5.68;;;;;;;6.83;77.21;101801.81;4974593;28;20645;-90
2021/11/18 12:37:24;;;;;;;8.68;5.40;;;;;;;6.83;77.37;101812.28;4967070;28;20469;-90
2021/11/18 12:39:51;;;;;;;;;;;;;;;6.82;77.45;101805.25;4986716;28;20018;-91
2021/11/18 12:42:55;;;;;;;10.30;6.28;;;;;;;6.83;77.32;101807.91;4993660;28;20283;-90
2021/11/18 12:45:38;;;;;;;8.27;5.97;;;;;;;6.83;77.47;101812.28;4963823;28;20423;-90
2021/11/18 12:48:14;;;;;;;11.13;6.47;;;;;;;6.85;77.49;101821.06;4978573;28;20476;-90
2021/11/18 12:50:49;;;;;;;9.25;6.10;;;;;;;6.85;76.93;101815.81;4978065;28;20041;-90
2021/11/18 12:53:17;;;;;;;12.57;6.68;;;;;;;6.85;77.05;101816.72;4983889;28;20026;-90
2021/11/18 12:56:09;;;;;;;9.88;5.80;;;;;;;6.83;77.32;101807.03;4992715;28;20463;-90
2021/11/18 12:58:54;;;;;;;;;;;;;;;6.86;77.37;101817.59;4987693;28;20389;-90
2021/11/18 13:01:22;;;;;;;10.23;6.20;;;;;;;6.85;77.41;101816.72;4993475;28;19910;-90
2021/11/18 13:03:49;;;;;;;10.50;5.90;;;;;;;6.85;77.25;101813.19;4992978;28;20030;-90
2021/11/18 13:06:29;;;;;;;11.65;6.30;;;;;;;6.86;77.05;101818.47;4993512;28;20038;-90
2021/11/18 13:08:57;;;;;;;10.60;6.10;;;;;;;6.85;77.05;101816.72;4993886;28;20102;-90
2021/11/18 13:11:25;;;;;;;10.82;6.53;;;;;;;6.87;77.12;101808.88;4993458;28;20670;-90
2021/11/18 13:14:12;;;;;;;8.80;6.00;;;;;;;6.88;77.38;101797.53;4992867;28;20109;-90
2021/11/18 13:16:47;;;;;;;9.23;5.82;;;;;;;6.87;77.18;101788.78;5009593;28;20026;-90
2021/11/18 13:19:53;;;;;;;11.32;6.15;;;;;;;6.88;77.00;101795.81;4992500;28;20026;-89
2021/11/18 13:22:23;;;;;;;8.38;5.55;;;;;;;6.88;77.02;101789.69;5008514;28;20029;-90
2021/11/18 13:25:10;;;;;;;10.00;6.03;;;;;;;6.89;77.16;101801.94;4993709;28;20501;-90
2021/11/18 13:27:50;;;;;;;7.13;5.13;;;;;;;6.89;77.31;101807.19;4968411;28;20077;-90
2021/11/18 13:30:33;;;;;;;9.63;5.80;;;;;;;6.89;77.08;101802.81;4990138;28;20481;-90
2021/11/18 13:33:15;;;;;;;13.13;6.30;;;;;;;6.87;77.30;101782.66;4993311;28;20058;-90
2021/11/18 13:35:41;;;;;;;9.80;6.35;;;;;;;6.87;77.35;101772.19;4993180;28;20085;-90
2021/11/18 13:38:20;;;;;;;10.32;6.00;;;;;;;6.89;77.41;101780.94;4993279;28;20373;-90
2021/11/18 13:40:57;;;;;;;11.00;6.65;;;;;;;6.88;77.15;101779.19;4993301;28;20090;-90
2021/11/18 13:43:26;;;;;;;7.35;5.70;;;;;;;6.88;77.20;101781.81;4992918;28;20092;-90
2021/11/18 13:46:03;;;;;;;7.72;6.20;;;;;;;6.89;76.96;101780.94;4993939;28;20129;-90
2021/11/18 13:48:40;;;;;;;7.78;6.00;;;;;;;6.88;76.99;101763.44;4993095;28;20535;-90
2021/11/18 13:51:05;;;;;;;9.43;6.38;;;;;;;6.91;77.15;101774.03;4977253;28;20022;-90
2021/11/18 13:53:47;;;;;;;9.20;6.35;;;;;;;6.89;77.24;101758.25;4976833;28;20023;-90
2021/11/18 13:56:37;;;;;;;8.18;5.72;;;;;;;6.91;77.08;101764.38;4993349;28;20031;-91
2021/11/18 13:59:11;;;;;;;9.05;6.20;;;;;;;6.90;77.10;101749.50;4993304;28;20030;-90
2021/11/18 14:01:41;;;;;;;10.93;7.07;;;;;;;6.90;77.21;101756.50;4992702;28;20018;-89
2021/11/18 14:04:16;;;;;;;9.43;6.15;;;;;;;6.92;77.16;101749.56;4992183;28;20026;-90
2021/11/18 14:06:46;;;;;;;7.53;6.63;;;;;;;6.93;77.37;101760.09;4993116;28;20396;-90
2021/11/18 14:09:21;;;;;;;9.33;6.17;;;;;;;6.92;77.50;101760.94;4977376;28;20065;-90
2021/11/18 14:11:51;;;;;;;8.93;5.47;;;;;;;6.92;77.26;101760.03;4992327;28;20476;-90
2021/11/18 14:14:33;;;;;;;11.18;6.78;;;;;;;6.95;77.24;101765.38;4992598;28;20034;-90
2021/11/18 14:17:19;;;;;;;12.02;5.68;;;;;;;6.93;76.89;101757.47;4992998;28;20026;-90
2021/11/18 14:20:03;;;;;;;7.03;6.03;;;;;;;6.95;76.89;101761.84;4992910;28;20029;-90
2021/11/18 14:22:30;;;;;;;8.85;6.20;;;;;;;6.93;77.11;101753.94;4989762;28;20073;-90
2021/11/18 14:24:58;;;;;;;8.65;6.47;;;;;;;6.95;77.05;101757.50;4993099;28;20040;-91
2021/11/18 14:27:27;;;;;;;13.25;7.20;;;;;;;6.94;77.17;101755.75;4992621;28;20029;-90
2021/11/18 14:30:12;;;;;;;10.65;6.53;;;;;;;6.93;76.99;101746.97;4994328;28;20484;-91
2021/11/18 14:33:04;;;;;;;11.10;6.18;;;;;;;6.95;77.19;101738.25;4978717;28;20023;-89
2021/11/18 14:35:38;;;;;;;7.50;5.68;;;;;;;6.95;77.05;101747.00;4979430;28;20476;-93
2021/11/18 14:38:51;;;;;;;12.10;6.93;;;;;;;6.95;76.96;101749.63;4996476;28;20580;-90
2021/11/18 14:41:36;;;;;;;9.30;5.95;;;;;;;6.97;76.93;101763.66;4864146;29;20029;-91
2021/11/18 14:44:08;;;;;;;8.75;5.82;;;;;;;6.97;76.96;101763.66;4971908;28;20046;-91
2021/11/18 14:47:01;;;;;;;8.73;6.20;;;;;;;6.97;77.37;101758.41;4978345;28;20050;-90
2021/11/18 14:49:30;;;;;;;10.00;6.43;;;;;;;6.97;77.08;101755.78;5011518;28;20057;-91
2021/11/18 14:52:18;;;;;;;12.05;7.07;;;;;;;6.96;77.07;101746.16;4982916;28;20023;-90
2021/11/18 14:55:26;;;;;;;8.60;6.53;;;;;;;6.98;77.03;101738.31;4993739;28;20472;-90
2021/11/18 14:58:03;;;;;;;7.80;5.65;;;;;;;6.96;77.10;101733.03;4971161;28;20034;-90
2021/11/18 15:00:39;;;;;;;8.52;5.80;;;;;;;6.99;77.13;101730.50;4980698;28;20077;-90
2021/11/18 15:03:08;;;;;;;10.65;6.25;;;;;;;6.97;77.06;101729.56;4991364;28;20034;-90
2021/11/18 15:05:35;;;;;;;6.78;5.68;;;;;;;6.98;76.95;101733.97;4992975;28;20034;-91
2021/11/18 15:08:00;;;;;;;8.27;5.43;;;;;;;6.97;76.96;101732.19;4968029;28;20076;-91
2021/11/18 15:10:25;;;;;;;8.90;5.80;;;;;;;6.99;76.99;101733.13;4993944;28;20030;-90
2021/11/18 15:12:51;;;;;;;8.38;6.57;;;;;;;6.99;77.03;101740.97;4964535;28;20148;-91
2021/11/18 15:15:21;;;;;;;9.55;6.15;;;;;;;7.00;77.10;101748.00;4995226;28;20395;-91
2021/11/18 15:17:54;;;;;;;7.55;4.95;;;;;;;6.99;77.03;101740.09;4994809;28;20022;-91
2021/11/18 15:20:25;;;;;;;7.13;5.32;;;;;;;7.00;76.82;101742.75;4994560;28;20779;-91
2021/11/18 15:22:53;;;;;;;9.20;7.25;;;;;;;6.97;77.30;101737.41;4994162;28;20034;-91
2021/11/18 15:25:21;;;;;;;7.45;5.85;;;;;;;7.02;77.22;101755.91;4994483;28;20065;-91
2021/11/18 15:27:48;;;;;;;9.02;6.68;;;;;;;7.01;76.91;101752.38;4994757;28;20058;-90
2021/11/18 15:30:19;;;;;;;8.20;6.28;;;;;;;7.00;77.21;101734.88;4997687;28;20550;-91
2021/11/18 15:32:45;;;;;;;7.40;6.18;;;;;;;7.02;76.86;101737.53;4988843;28;20026;-90
2021/11/18 15:35:16;;;;;;;6.57;5.72;;;;;;;7.02;76.82;101725.31;4977428;28;20118;-91
2021/11/18 15:37:42;;;;;;;9.45;6.63;;;;;;;7.02;77.22;101735.81;4993732;28;20026;-90
2021/11/18 15:40:17;;;;;;;8.77;5.75;;;;;;;6.99;77.28;101735.72;4994209;28;20550;-92
2021/11/18 15:42:42;;;;;;;11.25;6.47;;;;;;;6.99;76.96;101746.22;4992626;28;21785;-93
2021/11/18 15:45:10;;;;;;;11.07;5.88;;;;;;;7.05;76.80;101759.50;4993967;28;20030;-91
2021/11/18 15:47:35;;;;;;;11.30;7.03;;;;;;;7.04;76.93;101764.69;4993991;28;20018;-91
2021/11/18 15:50:04;;;;;;;8.85;6.55;;;;;;;7.02;76.77;101755.91;4993222;28;20400;-91
2021/11/18 15:52:30;;;;;;;8.00;6.30;;;;;;;6.99;76.82;101746.22;4989455;28;20415;-91
2021/11/18 15:54:56;;;;;;;8.77;6.15;;;;;;;7.05;76.98;101762.13;4991463;28;20037;-91
2021/11/18 15:57:23;;;;;;;9.38;6.55;;;;;;;7.03;77.28;101750.69;4977111;28;20116;-91
2021/11/18 15:59:49;;;;;;;10.43;6.10;;;;;;;7.04;76.96;101749.84;4977282;28;20041;-92
2021/11/18 16:02:16;;;;;;;7.60;5.70;;;;;;;7.06;76.95;101758.63;4973344;28;20114;-91
2021/11/18 16:04:44;;;;;;;11.85;7.20;;;;;;;7.03;77.01;101752.41;4976535;28;20030;-91
2021/11/18 16:07:11;;;;;;;9.38;6.05;;;;;;;7.04;76.77;101754.22;4993762;28;20122;-91
2021/11/18 16:09:39;;;;;;;10.13;6.35;;;;;;;7.03;76.74;101755.94;4993614;28;20483;-91
2021/11/18 16:12:09;;;;;;;6.20;5.60;;;;;;;7.05;76.94;101755.97;4993531;28;20038;-91
2021/11/18 16:14:38;;;;;;;8.23;6.25;;;;;;;7.05;76.92;101741.13;4993186;28;20026;-91
2021/11/18 16:17:07;;;;;;;7.28;5.97;;;;;;;7.03;76.79;101739.31;4994060;28;20073;-93
2021/11/18 16:19:33;;;;;;;7.22;5.10;;;;;;;7.04;76.96;101734.09;4987124;28;20102;-91
2021/11/18 16:22:01;;;;;;;7.93;5.75;;;;;;;7.05;76.97;101720.16;4977097;28;20019;-92
2021/11/18 16:24:26;;;;;;;9.38;6.80;;;;;;;7.08;76.76;101739.41;4976178;28;20172;-92
2021/11/18 16:26:52;;;;;;;10.02;6.13;;;;;;;7.05;76.92;101730.63;4976610;28;20054;-91
2021/11/18 16:29:20;;;;;;;10.75;6.60;;;;;;;7.11;77.18;101729.00;4975667;28;20064;-93
2021/11/18 16:31:49;;;;;;;11.70;6.80;;;;;;;7.09;77.26;101731.56;4975731;28;20113;-92
2021/11/18 16:34:17;;;;;;;10.30;6.43;;;;;;;7.11;77.65;101729.00;4992136;28;20070;-92
2021/11/18 16:36:43;;;;;;;12.25;5.90;;;;;;;7.12;77.69;101750.03;4992462;28;20050;-92
2021/11/18 16:39:15;;;;;;;9.90;6.43;;;;;;;7.04;77.61;101723.59;4986470;28;20019;-91
2021/11/18 16:41:43;;;;;;;9.35;6.75;;;;;;;7.14;77.12;101739.56;4976672;28;20067;-92
2021/11/18 16:44:08;;;;;;;13.15;6.60;;;;;;;7.11;77.40;101744.72;4976405;28;20026;-91
2021/11/18 16:46:35;;;;;;;9.48;5.80;;;;;;;7.13;77.20;101748.25;4976010;28;20041;-92
2021/11/18 16:49:01;;;;;;;7.53;5.88;;;;;;;7.13;76.99;101732.53;4976721;28;20022;-91
2021/11/18 16:51:48;;;;;;;8.40;6.00;;;;;;;7.13;77.01;101737.75;4977093;28;20022;-91
2021/11/18 16:54:14;;;;;;;9.73;5.93;;;;;;;7.11;76.99;101729.00;4975609;28;20038;-92
2021/11/18 16:56:42;;;;;;;9.40;6.40;;;;;;;7.14;77.12;101726.44;4976427;28;20022;-91
2021/11/18 16:59:10;;;;;;;7.85;6.63;;;;;;;7.06;77.28;101706.16;4985731;28;20026;-91
2021/11/18 17:01:40;;;;;;;12.23;6.47;;;;;;;7.11;77.22;101713.25;4988017;28;20025;-91
2021/11/18 17:04:06;;;;;;;6.30;5.57;;;;;;;7.05;77.27;101699.16;4957964;28;20049;-91
2021/11/18 17:06:33;;;;;;;9.25;6.82;;;;;;;7.12;77.10;101715.91;4973951;28;20026;-92
2021/11/18 17:08:59;;;;;;;8.38;5.97;;;;;;;7.14;77.35;101726.44;4992363;28;20018;-91
2021/11/18 17:11:30;;;;;;;9.93;6.10;;;;;;;7.14;77.24;101721.19;4976048;28;20018;-91
2021/11/18 17:13:57;;;;;;;9.82;6.80;;;;;;;7.15;77.26;101733.44;4959915;28;20027;-91
2021/11/18 17:16:22;;;;;;;11.20;6.28;;;;;;;7.13;77.41;101732.53;4974852;28;20030;-92
2021/11/18 17:18:49;;;;;;;9.32;5.95;;;;;;;7.13;77.25;101722.91;4991909;28;20026;-92
2021/11/18 17:21:20;;;;;;;9.82;6.25;;;;;;;7.16;77.10;101723.00;4992153;28;20025;-91
2021/11/18 17:23:47;;;;;;;8.52;6.13;;;;;;;7.12;77.27;101715.91;4975740;28;20053;-91
2021/11/18 17:26:14;;;;;;;9.68;6.20;;;;;;;7.14;77.37;101716.81;4991770;28;20488;-91
2021/11/18 17:28:43;;;;;;;10.88;6.60;;;;;;;7.14;77.30;101723.81;4976239;28;20116;-92
2021/11/18 17:31:25;;;;;;;7.47;5.68;;;;;;;7.12;77.40;101718.53;4993122;28;20379;-92
2021/11/18 17:33:51;;;;;;;13.85;6.60;;;;;;;7.15;77.41;101725.59;4960144;28;20077;-91
2021/11/18 17:36:20;;;;;;;8.95;5.53;;;;;;;7.15;77.18;101736.97;4991959;28;20486;-91
2021/11/18 17:38:51;;;;;;;12.32;5.82;;;;;;;7.17;77.22;101732.63;4992238;28;20074;-92
2021/11/18 17:41:19;;;;;;;8.20;5.80;;;;;;;7.15;77.22;101733.44;4991865;28;20420;-92
2021/11/18 17:43:46;;;;;;;8.02;6.07;;;;;;;7.13;77.08;101724.66;4976746;28;20092;-91
2021/11/18 17:46:18;;;;;;;12.10;6.53;;;;;;;7.15;77.44;101729.09;4975849;28;20476;-91
2021/11/18 17:48:44;;;;;;;9.48;5.53;;;;;;;7.19;77.25;101737.91;4992044;28;20053;-92
2021/11/18 17:51:16;;;;;;;8.82;5.93;;;;;;;7.12;77.01;101725.50;4975516;28;20027;-91
2021/11/18 17:53:43;;;;;;;7.25;6.32;;;;;;;7.14;77.09;101731.69;4975216;28;20027;-91
2021/11/18 17:56:09;;;;;;;11.38;6.18;;;;;;;7.18;77.19;101725.66;4992169;28;20034;-91
2021/11/18 17:58:36;;;;;;;10.05;6.85;;;;;;;7.15;77.43;101725.59;4990570;28;20018;-91
2021/11/18 18:01:37;;;;;;;10.38;6.75;;;;;;;7.16;77.21;101730.88;4972604;28;20383;-91
2021/11/18 18:04:03;;;;;;;7.20;5.90;;;;;;;7.14;77.31;101729.06;4973128;28;20037;-91
2021/11/18 18:06:33;;;;;;;9.43;6.25;;;;;;;7.17;77.24;101718.66;4975790;28;20045;-93
2021/11/18 18:09:00;;;;;;;6.93;5.90;;;;;;;7.14;77.29;101721.19;4979847;28;20530;-92
2021/11/18 18:11:28;;;;;;;10.63;5.88;;;;;;;7.20;77.42;101723.94;4980872;28;20022;-93
2021/11/18 18:13:54;;;;;;;8.57;6.15;;;;;;;7.19;77.05;101723.06;4979911;28;20459;-93
2021/11/18 18:16:27;;;;;;;6.13;5.25;;;;;;;7.17;77.31;101729.13;4981405;28;20057;-91
2021/11/18 18:19:04;;;;;;;9.27;6.45;;;;;;;7.20;77.19;101721.31;4979591;28;20121;-91
2021/11/18 18:21:30;;;;;;;8.05;5.97;;;;;;;7.20;77.10;101723.94;4978890;28;20050;-91
2021/11/18 18:23:57;;;;;;;10.07;6.20;;;;;;;7.18;77.27;101725.66;4975956;28;20038;-91
2021/11/18 18:26:32;;;;;;;10.18;6.10;;;;;;;7.18;77.34;101730.91;4985685;28;20043;-92
2021/11/18 18:28:59;;;;;;;8.13;6.30;;;;;;;7.19;77.20;101719.53;4984541;28;20031;-92
2021/11/18 18:31:31;;;;;;;9.23;6.32;;;;;;;7.22;77.14;101739.72;4975843;28;20026;-91
2021/11/18 18:33:58;;;;;;;11.35;6.63;;;;;;;7.22;77.05;101727.50;4975937;28;20477;-91
2021/11/18 18:36:27;;;;;;;8.25;5.55;;;;;;;7.21;77.20;101717.84;4978173;28;20069;-91
2021/11/18 18:38:53;;;;;;;9.45;6.05;;;;;;;7.23;77.24;101717.91;4979049;28;20497;-89
2021/11/18 18:41:25;;;;;;;8.23;6.22;;;;;;;7.22;77.11;101709.13;4978393;28;20392;-91
2021/11/18 18:43:50;;;;;;;10.77;6.40;;;;;;;7.22;77.26;101711.75;4979336;28;20121;-91
2021/11/18 18:46:18;;;;;;;9.48;5.57;;;;;;;7.19;76.99;101702.06;4995198;28;20508;-91